createdAt,value
2018-09-21T00:02:27.801Z,14.65
2018-09-21T00:04:56.578Z,14.50
2018-09-21T00:07:25.187Z,14.47
2018-09-21T00:09:54.226Z,14.65
2018-09-21T00:12:23.024Z,14.75
2018-09-21T00:14:52.010Z,14.69
2018-09-21T00:17:20.819Z,14.57
2018-09-21T00:19:50.055Z,14.51
2018-09-21T00:22:19.136Z,14.54
2018-09-21T00:24:48.149Z,14.39
2018-09-21T00:27:17.098Z,14.25
2018-09-21T00:29:46.087Z,14.27
2018-09-21T00:32:14.726Z,14.22
2018-09-21T00:34:43.396Z,14.23
2018-09-21T00:37:12.321Z,14.39
2018-09-21T00:39:41.441Z,14.26
2018-09-21T00:42:10.581Z,14.18
2018-09-21T00:44:39.652Z,14.32
2018-09-21T00:47:08.603Z,14.29
2018-09-21T00:49:37.508Z,14.27
2018-09-21T00:52:06.409Z,14.19
2018-09-21T00:54:35.374Z,14.23
2018-09-21T00:57:04.015Z,14.34
2018-09-21T00:59:33.203Z,14.18
2018-09-21T01:02:01.979Z,14.21
2018-09-21T01:04:35.646Z,14.02
2018-09-21T01:07:04.846Z,14.02
2018-09-21T01:09:33.778Z,14.07
2018-09-21T01:12:02.675Z,14.10
2018-09-21T01:14:31.763Z,14.22
2018-09-21T01:17:00.535Z,14.10
2018-09-21T01:19:29.613Z,14.24
2018-09-21T01:21:58.513Z,13.80
2018-09-21T01:24:27.547Z,14.15
2018-09-21T01:26:56.282Z,14.15
2018-09-21T01:29:25.286Z,14.30
2018-09-21T01:31:54.034Z,14.41
2018-09-21T01:34:22.789Z,14.41
2018-09-21T01:36:51.801Z,14.46
2018-09-21T01:39:21.038Z,14.39
2018-09-21T01:41:50.015Z,14.44
2018-09-21T01:44:18.950Z,14.39
2018-09-21T01:46:47.581Z,14.42
2018-09-21T01:49:16.753Z,14.40
2018-09-21T01:51:45.625Z,14.38
2018-09-21T01:54:14.710Z,14.35
2018-09-21T01:56:43.634Z,14.36
2018-09-21T01:59:12.299Z,14.35
2018-09-21T02:01:41.094Z,14.38
2018-09-21T02:04:09.806Z,14.31
2018-09-21T02:06:38.803Z,13.99
2018-09-21T02:09:08.903Z,14.04
2018-09-21T02:11:37.943Z,14.17
2018-09-21T02:14:06.997Z,14.11
2018-09-21T02:16:35.938Z,14.17
2018-09-21T02:19:04.571Z,14.29
2018-09-21T02:21:33.369Z,14.30
2018-09-21T02:24:02.317Z,14.30
2018-09-21T02:26:31.070Z,14.23
2018-09-21T02:28:59.656Z,14.22
2018-09-21T02:31:28.326Z,14.14
2018-09-21T02:33:57.039Z,14.13
2018-09-21T02:36:26.170Z,14.10
2018-09-21T02:38:55.194Z,14.12
2018-09-21T02:41:24.180Z,14.08
2018-09-21T02:43:53.167Z,14.03
2018-09-21T02:46:22.059Z,13.94
2018-09-21T02:48:51.192Z,13.85
2018-09-21T02:51:19.990Z,13.84
2018-09-21T02:53:48.778Z,13.53
2018-09-21T02:56:18.130Z,13.65
2018-09-21T02:58:46.975Z,13.87
2018-09-21T03:01:15.725Z,13.79
2018-09-21T03:03:44.387Z,13.89
2018-09-21T03:06:13.662Z,13.73
2018-09-21T03:08:42.603Z,13.39
2018-09-21T03:11:11.861Z,13.25
2018-09-21T03:13:41.053Z,13.02
2018-09-21T03:16:09.795Z,13.10
2018-09-21T03:18:38.816Z,13.13
2018-09-21T03:21:07.604Z,13.18
2018-09-21T03:23:36.402Z,13.27
2018-09-21T03:26:05.323Z,12.87
2018-09-21T03:28:34.115Z,12.83
2018-09-21T03:31:02.774Z,12.96
2018-09-21T03:33:31.722Z,13.10
2018-09-21T03:36:00.913Z,13.23
2018-09-21T03:38:29.906Z,13.08
2018-09-21T03:40:58.694Z,13.17
2018-09-21T03:43:28.518Z,13.30
2018-09-21T03:45:57.442Z,13.31
2018-09-21T03:48:26.372Z,13.05
2018-09-21T03:50:55.204Z,13.07
2018-09-21T03:53:23.879Z,13.14
2018-09-21T03:55:52.815Z,13.22
2018-09-21T03:58:21.559Z,13.18
2018-09-21T04:00:50.318Z,13.12
2018-09-21T04:03:18.931Z,13.20
2018-09-21T04:05:47.786Z,13.30
2018-09-21T04:08:16.611Z,13.39
2018-09-21T04:10:45.402Z,13.38
2018-09-21T04:13:14.170Z,13.32
2018-09-21T04:18:45.831Z,13.25
2018-09-21T04:21:14.591Z,13.09
2018-09-21T04:23:43.298Z,13.19
2018-09-21T04:26:12.355Z,13.14
2018-09-21T04:28:41.337Z,13.13
2018-09-21T04:31:10.259Z,13.04
2018-09-21T04:33:39.206Z,12.83
2018-09-21T04:36:08.091Z,12.83
2018-09-21T04:38:37.096Z,12.90
2018-09-21T04:41:06.136Z,12.95
2018-09-21T04:43:34.972Z,13.00
2018-09-21T04:46:03.962Z,12.97
2018-09-21T04:48:32.597Z,13.05
2018-09-21T04:51:01.350Z,13.04
2018-09-21T04:53:30.015Z,12.99
2018-09-21T04:55:59.135Z,13.16
2018-09-21T04:58:28.177Z,13.33
2018-09-21T05:00:57.091Z,13.38
2018-09-21T05:03:26.114Z,13.60
2018-09-21T05:05:55.187Z,13.73
2018-09-21T05:08:24.318Z,13.91
2018-09-21T05:10:53.214Z,14.06
2018-09-21T05:13:22.135Z,14.16
2018-09-21T05:15:50.972Z,14.36
2018-09-21T05:18:19.635Z,14.44
2018-09-21T05:20:48.445Z,14.51
2018-09-21T05:23:17.218Z,14.81
2018-09-21T05:25:46.363Z,14.89
2018-09-21T05:28:15.380Z,15.08
2018-09-21T05:30:44.311Z,15.26
2018-09-21T05:33:13.193Z,15.49
2018-09-21T05:35:42.034Z,15.48
2018-09-21T05:38:10.971Z,15.70
2018-09-21T05:40:39.869Z,15.91
2018-09-21T05:43:08.953Z,16.23
2018-09-21T05:45:37.964Z,16.42
2018-09-21T05:48:06.642Z,16.45
2018-09-21T05:50:35.434Z,16.53
2018-09-21T05:53:04.159Z,16.69
2018-09-21T05:55:33.038Z,16.75
2018-09-21T05:58:02.423Z,16.86
2018-09-21T06:00:31.127Z,17.02
2018-09-21T06:03:00.173Z,17.06
2018-09-21T06:05:29.117Z,17.16
2018-09-21T06:07:58.014Z,17.32
2018-09-21T06:10:26.850Z,17.38
2018-09-21T06:12:55.442Z,17.72
2018-09-21T06:15:24.402Z,17.79
2018-09-21T06:17:53.116Z,17.99
2018-09-21T06:20:21.798Z,18.19
2018-09-21T06:22:50.428Z,18.40
2018-09-21T06:25:19.242Z,18.42
2018-09-21T06:27:48.177Z,18.48
2018-09-21T06:30:17.167Z,18.64
2018-09-21T06:32:46.000Z,18.58
2018-09-21T06:35:15.142Z,18.81
2018-09-21T06:37:44.022Z,19.01
2018-09-21T06:40:12.972Z,19.10
2018-09-21T06:42:41.911Z,19.23
2018-09-21T06:45:10.762Z,19.32
2018-09-21T06:47:39.513Z,19.24
2018-09-21T06:50:08.342Z,19.40
2018-09-21T06:52:36.942Z,19.61
2018-09-21T06:55:05.993Z,19.84
2018-09-21T06:57:35.208Z,20.01
2018-09-21T07:00:04.327Z,20.04
2018-09-21T07:02:33.108Z,20.11
2018-09-21T07:05:07.047Z,20.22
2018-09-21T07:07:36.139Z,20.37
2018-09-21T07:10:05.293Z,20.37
2018-09-21T07:12:34.029Z,20.56
2018-09-21T07:15:02.914Z,20.55
2018-09-21T07:17:31.754Z,20.83
2018-09-21T07:20:00.444Z,20.98
2018-09-21T07:22:29.300Z,20.86
2018-09-21T07:24:58.374Z,20.85
2018-09-21T07:27:27.616Z,21.11
2018-09-21T07:29:56.375Z,20.72
2018-09-21T07:32:25.572Z,20.93
2018-09-21T07:34:55.718Z,21.19
2018-09-21T07:37:24.436Z,21.37
2018-09-21T07:39:53.538Z,21.43
2018-09-21T07:42:22.478Z,21.66
2018-09-21T07:44:52.602Z,21.84
2018-09-21T07:47:21.307Z,21.84
2018-09-21T07:49:50.063Z,21.83
2018-09-21T07:52:18.739Z,22.29
2018-09-21T07:54:47.706Z,22.47
2018-09-21T07:57:16.623Z,22.12
2018-09-21T07:59:45.594Z,22.43
2018-09-21T08:02:14.427Z,22.51
2018-09-21T08:04:43.498Z,22.40
2018-09-21T08:07:12.345Z,22.56
2018-09-21T08:09:41.279Z,22.62
2018-09-21T08:12:10.064Z,22.80
2018-09-21T08:14:38.948Z,22.75
2018-09-21T08:17:07.944Z,23.02
2018-09-21T08:19:36.633Z,23.25
2018-09-21T08:22:05.259Z,23.21
2018-09-21T08:24:34.341Z,23.72
2018-09-21T08:27:03.467Z,23.52
2018-09-21T08:29:32.375Z,23.76
2018-09-21T08:32:01.551Z,23.98
2018-09-21T08:34:30.438Z,24.01
2018-09-21T08:36:59.390Z,24.02
2018-09-21T08:39:28.256Z,23.86
2018-09-21T08:41:57.311Z,24.26
2018-09-21T08:44:26.362Z,24.08
2018-09-21T08:46:55.142Z,24.41
2018-09-21T08:49:23.827Z,24.54
2018-09-21T08:51:52.589Z,24.32
2018-09-21T08:54:21.256Z,24.21
2018-09-21T08:56:50.404Z,24.39
2018-09-21T08:59:19.166Z,24.30
2018-09-21T09:01:48.167Z,24.67
2018-09-21T09:04:16.971Z,24.72
2018-09-21T09:06:46.051Z,25.06
2018-09-21T09:09:15.267Z,24.97
2018-09-21T09:11:44.311Z,24.99
2018-09-21T09:14:13.073Z,24.44
2018-09-21T09:16:41.974Z,24.71
2018-09-21T09:19:10.706Z,25.00
2018-09-21T09:21:39.642Z,25.11
2018-09-21T09:24:08.579Z,25.20
2018-09-21T09:26:37.692Z,25.46
2018-09-21T09:29:07.052Z,25.53
2018-09-21T09:31:36.333Z,25.38
2018-09-21T09:34:05.366Z,25.42
2018-09-21T09:36:34.007Z,25.73
2018-09-21T09:39:02.670Z,25.94
2018-09-21T09:41:31.463Z,25.93
2018-09-21T09:44:00.580Z,26.49
2018-09-21T09:46:31.879Z,26.46
2018-09-21T09:49:01.409Z,26.61
2018-09-21T09:51:30.166Z,26.45
2018-09-21T09:53:59.019Z,27.08
2018-09-21T09:56:27.935Z,27.49
2018-09-21T09:58:57.015Z,27.66
2018-09-21T10:01:25.863Z,27.79
2018-09-21T10:03:55.135Z,27.81
2018-09-21T10:06:24.127Z,28.36
2018-09-21T10:08:53.250Z,28.85
2018-09-21T10:11:22.122Z,28.63
2018-09-21T10:13:50.725Z,28.68
2018-09-21T10:16:19.514Z,28.96
2018-09-21T10:18:48.279Z,28.67
2018-09-21T10:21:17.088Z,28.65
2018-09-21T10:23:45.938Z,29.09
2018-09-21T10:26:14.778Z,29.26
2018-09-21T10:28:44.105Z,29.23
2018-09-21T10:31:12.980Z,29.55
2018-09-21T10:33:42.017Z,29.15
2018-09-21T10:36:10.649Z,29.33
2018-09-21T11:49:59.505Z,30.59
2018-09-21T11:52:28.330Z,31.11
2018-09-21T11:54:56.957Z,31.12
2018-09-21T11:57:25.765Z,31.05
2018-09-21T11:59:54.740Z,31.22
2018-09-21T12:02:23.646Z,31.04
2018-09-21T12:04:52.758Z,31.02
2018-09-21T12:09:49.649Z,31.40
2018-09-21T12:12:18.510Z,31.25
2018-09-21T12:14:47.485Z,31.47
2018-09-21T12:17:16.381Z,31.14
2018-09-21T12:19:45.158Z,31.39
2018-09-21T12:22:13.799Z,31.27
2018-09-21T12:24:42.476Z,31.17
2018-09-21T12:27:11.567Z,31.30
2018-09-21T12:29:40.885Z,31.43
2018-09-21T12:32:09.943Z,31.79
2018-09-21T12:34:39.032Z,31.49
2018-09-21T12:37:08.007Z,31.73
2018-09-21T12:39:37.236Z,31.54
2018-09-21T12:42:06.129Z,31.82
2018-09-21T12:44:34.842Z,31.85
2018-09-21T12:47:03.580Z,31.91
2018-09-21T12:49:33.683Z,31.38
2018-09-21T12:52:03.033Z,31.62
2018-09-21T12:54:31.674Z,31.53
2018-09-21T12:57:00.332Z,31.19
2018-09-21T12:59:29.367Z,31.16
2018-09-21T13:01:58.489Z,31.32
2018-09-21T13:04:27.312Z,31.27
2018-09-21T13:06:56.406Z,31.35
2018-09-21T13:09:25.251Z,31.49
2018-09-21T13:11:54.067Z,31.59
2018-09-21T13:14:22.898Z,31.60
2018-09-21T13:16:51.517Z,31.75
2018-09-21T13:19:20.474Z,31.95
2018-09-21T13:21:49.690Z,31.99
2018-09-21T13:24:18.424Z,31.98
2018-09-21T13:26:47.371Z,32.16
2018-09-21T13:29:16.243Z,32.26
2018-09-21T13:31:44.861Z,32.44
2018-09-21T13:34:13.665Z,32.48
2018-09-21T13:36:42.449Z,32.48
2018-09-21T13:39:12.512Z,33.01
2018-09-21T13:41:41.426Z,33.09
2018-09-21T13:44:10.092Z,33.40
2018-09-21T13:46:38.910Z,33.52
2018-09-21T13:49:08.015Z,33.61
2018-09-21T13:51:36.910Z,33.89
2018-09-21T13:54:05.661Z,33.96
2018-09-21T13:56:36.334Z,33.47
2018-09-21T13:59:05.248Z,33.06
2018-09-21T14:01:33.863Z,33.61
2018-09-21T14:04:02.802Z,33.07
2018-09-21T14:06:31.696Z,33.45
2018-09-21T14:09:00.431Z,33.36
2018-09-21T14:11:29.011Z,33.51
2018-09-21T14:13:57.634Z,33.51
2018-09-21T14:16:26.346Z,33.25
2018-09-21T14:18:55.363Z,33.19
2018-09-21T14:21:23.987Z,33.48
2018-09-21T14:23:52.794Z,33.13
2018-09-21T14:26:22.226Z,33.57
2018-09-21T14:28:51.060Z,33.53
2018-09-21T14:31:19.939Z,33.53
2018-09-21T14:33:49.273Z,33.75
2018-09-21T14:36:18.287Z,34.05
2018-09-21T14:38:47.501Z,34.33
2018-09-21T14:41:16.411Z,33.98
2018-09-21T14:43:45.147Z,33.86
2018-09-21T14:46:13.851Z,33.97
2018-09-21T14:48:42.950Z,33.11
2018-09-21T14:51:11.843Z,33.39
2018-09-21T14:53:40.675Z,33.70
2018-09-21T14:56:09.619Z,33.63
2018-09-21T14:58:38.422Z,33.30
2018-09-21T15:01:07.271Z,32.99
2018-09-21T15:03:36.201Z,32.75
2018-09-21T15:06:04.959Z,31.93
2018-09-21T15:08:33.937Z,31.81
2018-09-21T15:11:02.999Z,31.71
2018-09-21T15:13:31.758Z,31.19
2018-09-21T15:16:00.543Z,30.93
2018-09-21T15:18:29.750Z,30.64
2018-09-21T15:20:58.743Z,30.34
2018-09-21T15:23:27.770Z,29.67
2018-09-21T15:25:56.741Z,29.30
2018-09-21T15:28:25.478Z,29.42
2018-09-21T15:30:54.372Z,29.18
2018-09-21T15:33:23.189Z,28.60
2018-09-21T15:35:52.252Z,28.88
2018-09-21T15:38:21.302Z,28.67
2018-09-21T15:40:50.010Z,28.54
2018-09-21T15:43:19.003Z,28.54
2018-09-21T15:45:48.051Z,28.26
2018-09-21T15:48:16.935Z,28.21
2018-09-21T15:50:46.075Z,28.03
2018-09-21T15:53:14.974Z,27.44
2018-09-21T15:55:44.075Z,27.56
2018-09-21T15:58:13.006Z,27.44
2018-09-21T16:00:42.171Z,27.44
2018-09-21T16:03:11.208Z,27.35
2018-09-21T16:05:39.988Z,27.08
2018-09-21T16:08:08.740Z,27.01
2018-09-21T16:10:37.500Z,26.66
2018-09-21T16:13:06.283Z,26.56
2018-09-21T16:15:34.999Z,26.27
2018-09-21T16:18:03.839Z,26.30
2018-09-21T16:20:32.930Z,25.89
2018-09-21T16:23:01.875Z,25.60
2018-09-21T16:25:31.131Z,25.64
2018-09-21T16:28:00.014Z,25.31
2018-09-21T16:30:29.052Z,25.00
2018-09-21T16:32:58.310Z,24.77
2018-09-21T16:35:27.156Z,24.82
2018-09-21T16:37:56.067Z,24.55
2018-09-21T16:40:24.927Z,24.30
2018-09-21T16:42:53.581Z,24.26
2018-09-21T16:45:22.479Z,24.32
2018-09-21T16:47:51.291Z,24.17
2018-09-21T16:50:20.501Z,23.83
2018-09-21T16:52:49.498Z,23.91
2018-09-21T16:55:18.414Z,23.73
2018-09-21T16:57:47.388Z,23.60
2018-09-21T17:00:16.538Z,23.62
2018-09-21T17:02:45.332Z,23.62
2018-09-21T17:05:14.146Z,23.50
2018-09-21T17:07:43.254Z,23.42
2018-09-21T17:10:12.000Z,23.31
2018-09-21T17:12:40.846Z,23.20
2018-09-21T17:15:09.822Z,23.23
2018-09-21T17:17:38.652Z,23.09
2018-09-21T17:20:07.589Z,23.13
2018-09-21T17:22:36.640Z,23.13
2018-09-21T17:25:05.507Z,23.11
2018-09-21T17:27:34.488Z,23.12
2018-09-21T17:30:03.531Z,22.81
2018-09-21T17:32:32.330Z,22.73
2018-09-21T17:35:03.888Z,22.54
2018-09-21T17:37:33.150Z,22.57
2018-09-21T17:40:01.814Z,22.48
2018-09-21T17:42:30.573Z,22.31
2018-09-21T17:44:59.374Z,22.25
2018-09-21T17:47:28.276Z,22.29
2018-09-21T17:49:56.978Z,22.33
2018-09-21T17:52:25.931Z,22.26
2018-09-21T17:54:55.103Z,22.25
2018-09-21T17:57:24.122Z,22.46
2018-09-21T17:59:52.940Z,22.30
2018-09-21T18:02:21.721Z,21.37
2018-09-21T18:04:50.471Z,21.31
2018-09-21T18:07:19.985Z,21.35
2018-09-21T18:09:49.746Z,21.54
2018-09-21T18:12:18.499Z,21.30
2018-09-21T18:14:47.483Z,21.27
2018-09-21T18:17:16.430Z,21.31
2018-09-21T18:19:45.115Z,20.90
2018-09-21T18:22:13.993Z,20.87
2018-09-21T18:24:42.821Z,20.24
2018-09-21T18:27:11.775Z,20.26
2018-09-21T18:29:40.886Z,20.39
2018-09-21T18:32:09.758Z,20.76
2018-09-21T18:34:38.870Z,20.57
2018-09-21T18:37:07.563Z,20.35
2018-09-21T18:39:36.580Z,20.54
2018-09-21T18:42:05.375Z,20.59
2018-09-21T18:44:34.219Z,20.38
2018-09-21T18:47:03.146Z,20.03
2018-09-21T18:49:31.938Z,20.16
2018-09-21T18:52:00.750Z,20.06
2018-09-21T18:54:29.627Z,20.21
2018-09-21T18:56:58.645Z,19.86
2018-09-21T18:59:27.373Z,20.06
2018-09-21T19:01:56.399Z,20.18
2018-09-21T19:04:25.385Z,19.84
2018-09-21T19:06:54.120Z,19.79
2018-09-21T19:09:22.695Z,19.86
2018-09-21T19:11:51.321Z,20.08
2018-09-21T19:14:20.308Z,19.88
2018-09-21T19:16:49.267Z,19.89
2018-09-21T19:19:18.096Z,20.00
2018-09-21T19:21:46.719Z,19.82
2018-09-21T19:24:15.674Z,19.83
2018-09-21T19:26:44.880Z,19.78
2018-09-21T19:29:13.858Z,19.52
2018-09-21T19:31:42.873Z,19.71
2018-09-21T19:34:11.601Z,19.82
2018-09-21T19:36:40.400Z,19.69
2018-09-21T19:39:10.928Z,19.70
2018-09-21T19:41:39.538Z,19.59
2018-09-21T19:44:08.374Z,19.58
2018-09-21T19:46:37.445Z,19.38
2018-09-21T19:49:06.517Z,19.45
2018-09-21T19:51:35.267Z,19.13
2018-09-21T19:54:04.080Z,19.18
2018-09-21T19:56:33.090Z,18.96
2018-09-21T19:59:01.976Z,19.03
2018-09-21T20:01:30.984Z,18.75
2018-09-21T20:04:00.067Z,18.65
2018-09-21T20:06:28.842Z,18.59
2018-09-21T20:08:57.526Z,18.66
2018-09-21T20:11:26.154Z,18.74
2018-09-21T20:13:55.379Z,18.55
2018-09-21T20:16:24.222Z,18.19
2018-09-21T20:18:53.119Z,18.15
2018-09-21T20:21:21.794Z,17.86
2018-09-21T20:23:50.777Z,17.84
2018-09-21T20:26:19.752Z,18.03
2018-09-21T20:28:48.893Z,17.82
2018-09-21T20:31:22.796Z,17.73
2018-09-21T20:33:51.791Z,17.57
2018-09-21T20:36:20.512Z,17.58
2018-09-21T20:38:49.146Z,17.89
2018-09-21T20:41:18.035Z,17.48
2018-09-21T20:43:46.921Z,17.19
2018-09-21T20:46:17.058Z,17.12
2018-09-21T20:48:46.063Z,17.06
2018-09-21T20:51:14.856Z,16.95
2018-09-21T20:53:43.496Z,17.03
2018-09-21T20:56:12.455Z,16.83
2018-09-21T20:58:41.201Z,16.75
2018-09-21T21:01:10.277Z,16.88
2018-09-21T21:03:39.110Z,16.79
2018-09-21T21:06:08.151Z,16.79
2018-09-21T21:08:37.256Z,16.73
2018-09-21T21:11:06.407Z,16.47
2018-09-21T21:13:35.248Z,16.38
2018-09-21T21:16:04.061Z,16.38
2018-09-21T21:18:32.706Z,16.37
2018-09-21T21:21:01.945Z,16.28
2018-09-21T21:23:30.778Z,16.21
2018-09-21T21:25:59.645Z,15.97
2018-09-21T21:28:28.866Z,16.07
2018-09-21T21:30:57.813Z,15.99
2018-09-21T21:33:27.107Z,15.95
2018-09-21T21:35:55.768Z,16.18
2018-09-21T21:38:24.560Z,16.21
2018-09-21T21:40:53.302Z,16.15
2018-09-21T21:43:22.431Z,15.80
2018-09-21T21:45:51.126Z,15.92
2018-09-21T21:48:19.922Z,15.67
2018-09-21T21:50:48.745Z,15.72
2018-09-21T21:53:17.655Z,15.84
2018-09-21T21:55:46.783Z,15.87
2018-09-21T21:58:15.699Z,15.90
2018-09-21T22:00:49.723Z,15.60
2018-09-21T22:03:18.538Z,15.74
2018-09-21T22:05:47.368Z,15.74
2018-09-21T22:08:16.125Z,15.77
2018-09-21T22:10:45.256Z,15.57
2018-09-21T22:13:19.083Z,15.54
2018-09-21T22:15:47.843Z,15.68
2018-09-21T22:18:16.671Z,15.70
2018-09-21T22:20:45.540Z,15.52
2018-09-21T22:23:14.569Z,15.24
2018-09-21T22:25:43.507Z,15.25
2018-09-21T22:28:12.535Z,15.21
2018-09-21T22:30:41.438Z,15.00
2018-09-21T22:33:10.213Z,15.00
2018-09-21T22:35:38.867Z,15.05
2018-09-21T22:38:07.640Z,15.12
2018-09-21T22:40:36.646Z,15.02
2018-09-21T22:43:05.655Z,15.13
2018-09-21T22:45:34.706Z,15.27
2018-09-21T22:48:03.635Z,15.09
2018-09-21T22:50:32.583Z,15.01
2018-09-21T22:53:01.408Z,14.91
2018-09-21T22:55:30.158Z,14.87
2018-09-21T22:57:58.983Z,14.86
2018-09-21T23:00:27.852Z,14.87
2018-09-21T23:02:56.538Z,14.74
2018-09-21T23:05:25.184Z,14.69
2018-09-21T23:07:53.854Z,14.68
2018-09-21T23:10:22.803Z,14.69
2018-09-21T23:12:51.546Z,14.74
2018-09-21T23:15:20.323Z,14.51
2018-09-21T23:17:49.163Z,14.69
2018-09-21T23:20:18.306Z,14.64
2018-09-21T23:22:47.102Z,14.49
2018-09-21T23:25:16.229Z,14.43
2018-09-21T23:27:45.242Z,14.40
2018-09-21T23:30:14.279Z,14.65
2018-09-21T23:32:42.840Z,14.53
2018-09-21T23:35:11.551Z,14.53
2018-09-21T23:37:40.203Z,14.48
2018-09-21T23:40:09.271Z,14.41
2018-09-21T23:42:38.161Z,14.33
2018-09-21T23:45:07.544Z,14.41
2018-09-21T23:47:36.410Z,14.28
2018-09-21T23:50:05.280Z,14.33
2018-09-21T23:52:34.177Z,14.36
2018-09-21T23:55:03.134Z,14.39
2018-09-21T23:57:31.883Z,14.46
